WZZ1523 EKCH-EPGD
Flight info
| Callsign | WZZ1523 |
|---|---|
| Flight time | 0h 45m |
| Altitude | 33000 |
| Route | SIMEG Z491 TELMO DCT RUMAR L983 DOMAG T240 OGDAV |
| Aircraft | A320/M-SDE3FGHIRWY/LB1 |
Departure
| Time | 2026-04-24 10:29 |
|---|---|
| Airport | Copenhagen Kastrup Airport (EKCH) |
Arrival
| Time | 2026-04-24 11:15 |
|---|---|
| Airport | Gdańsk Lech Wałęsa Airport (EPGD) |
| Time | Latitude | Longitude | Altitude | Speed | Heading |
|---|---|---|---|---|---|
| 2026-04-24 09:54 | 55.62526 | 12.65759 | 28 ft | 0 kts | 359° |
| 2026-04-24 10:16 | 55.62515 | 12.65760 | 24 ft | 4 kts | 357° |
| 2026-04-24 10:16 | 55.62488 | 12.65763 | 24 ft | 4 kts | 350° |
| 2026-04-24 10:16 | 55.62463 | 12.65775 | 25 ft | 4 kts | 330° |
| 2026-04-24 10:16 | 55.62447 | 12.65803 | 27 ft | 3 kts | 272° |
| 2026-04-24 10:17 | 55.62447 | 12.65807 | 27 ft | 0 kts | 269° |
| 2026-04-24 10:20 | 55.62447 | 12.65805 | 26 ft | 1 kts | 269° |
| 2026-04-24 10:21 | 55.62447 | 12.65768 | 24 ft | 5 kts | 268° |
| 2026-04-24 10:21 | 55.62445 | 12.65673 | 24 ft | 10 kts | 268° |
| 2026-04-24 10:21 | 55.62443 | 12.65530 | 24 ft | 13 kts | 269° |
| 2026-04-24 10:21 | 55.62441 | 12.65377 | 24 ft | 13 kts | 269° |
| 2026-04-24 10:22 | 55.62440 | 12.65250 | 24 ft | 8 kts | 264° |
| 2026-04-24 10:22 | 55.62391 | 12.65202 | 24 ft | 10 kts | 181° |
| 2026-04-24 10:22 | 55.62314 | 12.65202 | 24 ft | 12 kts | 184° |
| 2026-04-24 10:22 | 55.62234 | 12.65193 | 24 ft | 11 kts | 191° |
| 2026-04-24 10:23 | 55.62163 | 12.65125 | 24 ft | 13 kts | 213° |
| 2026-04-24 10:23 | 55.62084 | 12.65034 | 24 ft | 15 kts | 213° |
| 2026-04-24 10:23 | 55.61993 | 12.64928 | 24 ft | 17 kts | 213° |
| 2026-04-24 10:23 | 55.61888 | 12.64807 | 24 ft | 19 kts | 213° |
| 2026-04-24 10:24 | 55.61769 | 12.64671 | 24 ft | 21 kts | 213° |
| 2026-04-24 10:24 | 55.61636 | 12.64518 | 26 ft | 24 kts | 213° |
| 2026-04-24 10:24 | 55.61490 | 12.64351 | 24 ft | 26 kts | 213° |
| 2026-04-24 10:24 | 55.61361 | 12.64202 | 26 ft | 22 kts | 213° |
| 2026-04-24 10:25 | 55.61224 | 12.64044 | 24 ft | 25 kts | 213° |
| 2026-04-24 10:25 | 55.61094 | 12.63896 | 24 ft | 21 kts | 213° |
| 2026-04-24 10:25 | 55.60968 | 12.63751 | 24 ft | 23 kts | 213° |
| 2026-04-24 10:25 | 55.60829 | 12.63590 | 25 ft | 25 kts | 213° |
| 2026-04-24 10:26 | 55.60711 | 12.63455 | 25 ft | 16 kts | 213° |
| 2026-04-24 10:26 | 55.60618 | 12.63332 | 24 ft | 18 kts | 220° |
| 2026-04-24 10:26 | 55.60521 | 12.63182 | 24 ft | 17 kts | 221° |
| 2026-04-24 10:26 | 55.60467 | 12.63114 | 24 ft | 10 kts | 197° |
| 2026-04-24 10:27 | 55.60409 | 12.63153 | 24 ft | 7 kts | 135° |
| 2026-04-24 10:27 | 55.60386 | 12.63199 | 24 ft | 8 kts | 131° |
| 2026-04-24 10:27 | 55.60346 | 12.63279 | 29 ft | 9 kts | 130° |
| 2026-04-24 10:27 | 55.60353 | 12.63367 | 32 ft | 6 kts | 43° |
| 2026-04-24 10:28 | 55.60355 | 12.63371 | 32 ft | 0 kts | 42° |
| 2026-04-24 10:28 | 55.60356 | 12.63372 | 32 ft | 1 kts | 42° |
| 2026-04-24 10:28 | 55.60460 | 12.63532 | 24 ft | 53 kts | 41° |
| 2026-04-24 10:28 | 55.60901 | 12.64216 | 28 ft | 113 kts | 41° |
| 2026-04-24 10:29 | 55.61612 | 12.65317 | 55 ft | 154 kts | 41° |
| 2026-04-24 10:29 | 55.62412 | 12.66561 | 672 ft | 154 kts | 39° |
| 2026-04-24 10:29 | 55.63218 | 12.67817 | 1358 ft | 157 kts | 36° |
| 2026-04-24 10:29 | 55.64089 | 12.69157 | 1729 ft | 177 kts | 36° |
| 2026-04-24 10:30 | 55.65079 | 12.70679 | 2009 ft | 200 kts | 36° |
| 2026-04-24 10:30 | 55.66212 | 12.72373 | 2354 ft | 226 kts | 36° |
| 2026-04-24 10:30 | 55.67477 | 12.74244 | 2900 ft | 245 kts | 36° |
| 2026-04-24 10:30 | 55.68770 | 12.76265 | 3820 ft | 252 kts | 43° |
| 2026-04-24 10:31 | 55.69677 | 12.78954 | 4719 ft | 266 kts | 66° |
| 2026-04-24 10:31 | 55.69897 | 12.82275 | 5637 ft | 280 kts | 91° |
| 2026-04-24 10:31 | 55.69301 | 12.85658 | 6570 ft | 292 kts | 117° |
| 2026-04-24 10:31 | 55.67942 | 12.88379 | 7420 ft | 301 kts | 138° |
| 2026-04-24 10:32 | 55.66339 | 12.90728 | 8269 ft | 304 kts | 139° |
| 2026-04-24 10:32 | 55.64689 | 12.93103 | 9114 ft | 308 kts | 139° |
| 2026-04-24 10:32 | 55.63009 | 12.95518 | 9959 ft | 313 kts | 139° |
| 2026-04-24 10:32 | 55.61299 | 12.97990 | 10485 ft | 327 kts | 139° |
| 2026-04-24 10:33 | 55.59478 | 13.00638 | 10740 ft | 349 kts | 139° |
| 2026-04-24 10:33 | 55.57569 | 13.03412 | 11296 ft | 358 kts | 139° |
| 2026-04-24 10:33 | 55.55633 | 13.06220 | 11985 ft | 363 kts | 139° |
| 2026-04-24 10:33 | 55.53661 | 13.09076 | 12683 ft | 368 kts | 139° |
| 2026-04-24 10:34 | 55.51670 | 13.11955 | 13376 ft | 372 kts | 139° |
| 2026-04-24 10:34 | 55.49653 | 13.14861 | 14029 ft | 376 kts | 139° |
| 2026-04-24 10:34 | 55.47612 | 13.17795 | 14633 ft | 380 kts | 139° |
| 2026-04-24 10:34 | 55.45553 | 13.20752 | 15240 ft | 383 kts | 140° |
| 2026-04-24 10:35 | 55.43473 | 13.23738 | 15845 ft | 387 kts | 140° |
| 2026-04-24 10:35 | 55.41383 | 13.26737 | 16455 ft | 390 kts | 140° |
| 2026-04-24 10:35 | 55.39292 | 13.29731 | 17030 ft | 393 kts | 140° |
| 2026-04-24 10:35 | 55.37165 | 13.32774 | 17645 ft | 397 kts | 141° |
| 2026-04-24 10:36 | 55.35009 | 13.35856 | 18250 ft | 400 kts | 141° |
| 2026-04-24 10:36 | 55.32842 | 13.38953 | 18788 ft | 404 kts | 141° |
| 2026-04-24 10:36 | 55.30648 | 13.42076 | 19302 ft | 408 kts | 141° |
| 2026-04-24 10:36 | 55.28432 | 13.45226 | 19808 ft | 412 kts | 141° |
| 2026-04-24 10:37 | 55.26254 | 13.48533 | 20322 ft | 416 kts | 135° |
| 2026-04-24 10:37 | 55.24383 | 13.52432 | 20806 ft | 420 kts | 124° |
| 2026-04-24 10:37 | 55.22882 | 13.56847 | 21268 ft | 424 kts | 117° |
| 2026-04-24 10:37 | 55.21466 | 13.61400 | 21728 ft | 428 kts | 117° |
| 2026-04-24 10:38 | 55.20024 | 13.65993 | 22171 ft | 432 kts | 118° |
| 2026-04-24 10:38 | 55.18563 | 13.70613 | 22610 ft | 436 kts | 118° |
| 2026-04-24 10:38 | 55.17083 | 13.75271 | 23058 ft | 440 kts | 118° |
| 2026-04-24 10:38 | 55.15585 | 13.79969 | 23525 ft | 444 kts | 118° |
| 2026-04-24 10:39 | 55.14081 | 13.84695 | 23944 ft | 448 kts | 118° |
| 2026-04-24 10:39 | 55.12559 | 13.89476 | 24334 ft | 451 kts | 118° |
| 2026-04-24 10:39 | 55.11029 | 13.94271 | 24725 ft | 453 kts | 118° |
| 2026-04-24 10:39 | 55.09506 | 13.99039 | 25121 ft | 456 kts | 118° |
| 2026-04-24 10:40 | 55.07957 | 14.03883 | 25517 ft | 458 kts | 117° |
| 2026-04-24 10:40 | 55.06646 | 14.08960 | 25905 ft | 460 kts | 108° |
| 2026-04-24 10:40 | 55.05808 | 14.14338 | 26285 ft | 460 kts | 98° |
| 2026-04-24 10:40 | 55.05454 | 14.19888 | 26666 ft | 459 kts | 88° |
| 2026-04-24 10:41 | 55.05433 | 14.25465 | 27023 ft | 461 kts | 87° |
| 2026-04-24 10:41 | 55.05417 | 14.31075 | 27387 ft | 464 kts | 87° |
| 2026-04-24 10:41 | 55.05394 | 14.36714 | 27749 ft | 467 kts | 87° |
| 2026-04-24 10:41 | 55.05364 | 14.42388 | 28134 ft | 469 kts | 87° |
| 2026-04-24 10:42 | 55.05328 | 14.48102 | 28512 ft | 471 kts | 87° |
| 2026-04-24 10:42 | 55.05290 | 14.53834 | 28884 ft | 474 kts | 88° |
| 2026-04-24 10:42 | 55.05252 | 14.59600 | 29243 ft | 477 kts | 88° |
| 2026-04-24 10:42 | 55.05211 | 14.65398 | 29609 ft | 480 kts | 88° |
| 2026-04-24 10:43 | 55.05169 | 14.71166 | 29969 ft | 482 kts | 88° |
| 2026-04-24 10:43 | 55.05124 | 14.77031 | 30293 ft | 485 kts | 88° |
| 2026-04-24 10:43 | 55.05076 | 14.82928 | 30592 ft | 488 kts | 88° |
| 2026-04-24 10:43 | 55.05024 | 14.88857 | 30889 ft | 490 kts | 88° |
| 2026-04-24 10:44 | 55.04968 | 14.94814 | 31242 ft | 492 kts | 88° |
| 2026-04-24 10:44 | 55.04906 | 15.00770 | 31697 ft | 491 kts | 88° |
| 2026-04-24 10:44 | 55.04839 | 15.06703 | 32122 ft | 490 kts | 88° |
| 2026-04-24 10:44 | 55.04772 | 15.12647 | 32542 ft | 490 kts | 87° |
| 2026-04-24 10:45 | 55.04703 | 15.18600 | 32936 ft | 490 kts | 87° |
| 2026-04-24 10:45 | 55.04634 | 15.24536 | 33061 ft | 488 kts | 87° |
| 2026-04-24 10:45 | 55.04561 | 15.30402 | 33075 ft | 481 kts | 87° |
| 2026-04-24 10:46 | 55.04408 | 15.42033 | 33075 ft | 478 kts | 87° |
| 2026-04-24 10:46 | 55.04250 | 15.53616 | 33057 ft | 477 kts | 87° |
| 2026-04-24 10:47 | 55.04081 | 15.65184 | 33068 ft | 477 kts | 87° |
| 2026-04-24 10:47 | 55.03898 | 15.76734 | 33066 ft | 477 kts | 87° |
| 2026-04-24 10:48 | 55.03708 | 15.88290 | 33079 ft | 477 kts | 87° |
| 2026-04-24 10:48 | 55.03497 | 15.99860 | 33073 ft | 477 kts | 88° |
| 2026-04-24 10:49 | 55.03265 | 16.11342 | 33074 ft | 477 kts | 88° |
| 2026-04-24 10:49 | 55.02925 | 16.22911 | 33074 ft | 478 kts | 89° |
| 2026-04-24 10:50 | 55.02521 | 16.34452 | 32727 ft | 474 kts | 90° |
| 2026-04-24 10:50 | 55.02317 | 16.40172 | 32223 ft | 471 kts | 90° |
| 2026-04-24 10:50 | 55.02121 | 16.45845 | 31754 ft | 467 kts | 90° |
| 2026-04-24 10:50 | 55.01931 | 16.51480 | 31286 ft | 464 kts | 90° |
| 2026-04-24 10:51 | 55.01745 | 16.57067 | 30825 ft | 460 kts | 90° |
| 2026-04-24 10:51 | 55.01562 | 16.62618 | 30394 ft | 458 kts | 90° |
| 2026-04-24 10:51 | 55.01377 | 16.68142 | 29876 ft | 455 kts | 90° |
| 2026-04-24 10:51 | 55.01189 | 16.73619 | 29434 ft | 451 kts | 90° |
| 2026-04-24 10:52 | 55.00995 | 16.79038 | 28996 ft | 446 kts | 90° |
| 2026-04-24 10:52 | 55.00798 | 16.84411 | 28568 ft | 441 kts | 90° |
| 2026-04-24 10:52 | 55.00601 | 16.89719 | 28162 ft | 437 kts | 90° |
| 2026-04-24 10:52 | 55.00403 | 16.94977 | 27741 ft | 433 kts | 90° |
| 2026-04-24 10:53 | 55.00205 | 17.00191 | 27335 ft | 429 kts | 90° |
| 2026-04-24 10:53 | 55.00010 | 17.05351 | 26929 ft | 426 kts | 90° |
| 2026-04-24 10:53 | 54.99817 | 17.10421 | 26532 ft | 423 kts | 90° |
| 2026-04-24 10:53 | 54.99620 | 17.15520 | 26121 ft | 421 kts | 90° |
| 2026-04-24 10:54 | 54.99423 | 17.20587 | 25716 ft | 418 kts | 90° |
| 2026-04-24 10:54 | 54.99226 | 17.25624 | 25292 ft | 416 kts | 90° |
| 2026-04-24 10:54 | 54.99028 | 17.30633 | 24868 ft | 413 kts | 90° |
| 2026-04-24 10:54 | 54.98828 | 17.35616 | 24441 ft | 411 kts | 90° |
| 2026-04-24 10:55 | 54.98626 | 17.40576 | 23999 ft | 410 kts | 90° |
| 2026-04-24 10:55 | 54.98423 | 17.45527 | 23544 ft | 408 kts | 90° |
| 2026-04-24 10:55 | 54.98217 | 17.50432 | 23055 ft | 406 kts | 90° |
| 2026-04-24 10:55 | 54.98008 | 17.55306 | 22614 ft | 402 kts | 90° |
| 2026-04-24 10:56 | 54.97798 | 17.60134 | 22163 ft | 398 kts | 90° |
| 2026-04-24 10:56 | 54.97356 | 17.64886 | 21721 ft | 399 kts | 103° |
| 2026-04-24 10:56 | 54.96337 | 17.69382 | 21270 ft | 399 kts | 116° |
| 2026-04-24 10:56 | 54.94785 | 17.73369 | 20804 ft | 398 kts | 130° |
| 2026-04-24 10:57 | 54.92890 | 17.76878 | 20354 ft | 396 kts | 133° |
| 2026-04-24 10:57 | 54.91006 | 17.80297 | 19887 ft | 386 kts | 133° |
| 2026-04-24 10:57 | 54.89197 | 17.83567 | 19459 ft | 373 kts | 133° |
| 2026-04-24 10:57 | 54.87426 | 17.86762 | 19030 ft | 361 kts | 133° |
| 2026-04-24 10:58 | 54.85695 | 17.89881 | 18614 ft | 359 kts | 133° |
| 2026-04-24 10:58 | 54.83962 | 17.93004 | 18165 ft | 360 kts | 133° |
| 2026-04-24 10:58 | 54.82222 | 17.96138 | 17717 ft | 359 kts | 133° |
| 2026-04-24 10:58 | 54.80518 | 17.99208 | 17314 ft | 347 kts | 133° |
| 2026-04-24 10:59 | 54.78888 | 18.02282 | 16932 ft | 346 kts | 130° |
| 2026-04-24 10:59 | 54.77330 | 18.05452 | 16536 ft | 345 kts | 128° |
| 2026-04-24 10:59 | 54.75813 | 18.08658 | 16141 ft | 344 kts | 128° |
| 2026-04-24 10:59 | 54.74301 | 18.11881 | 15749 ft | 343 kts | 128° |
| 2026-04-24 11:00 | 54.72793 | 18.15075 | 15416 ft | 340 kts | 128° |
| 2026-04-24 11:00 | 54.71305 | 18.18195 | 15015 ft | 333 kts | 128° |
| 2026-04-24 11:00 | 54.69850 | 18.21218 | 14443 ft | 330 kts | 128° |
| 2026-04-24 11:00 | 54.68385 | 18.24240 | 13879 ft | 326 kts | 128° |
| 2026-04-24 11:01 | 54.66914 | 18.27264 | 13237 ft | 323 kts | 128° |
| 2026-04-24 11:01 | 54.65476 | 18.30221 | 12622 ft | 319 kts | 128° |
| 2026-04-24 11:01 | 54.64071 | 18.33105 | 12177 ft | 318 kts | 129° |
| 2026-04-24 11:01 | 54.62653 | 18.36009 | 11905 ft | 314 kts | 129° |
| 2026-04-24 11:02 | 54.61250 | 18.38873 | 11619 ft | 311 kts | 129° |
| 2026-04-24 11:02 | 54.59851 | 18.41728 | 11228 ft | 312 kts | 129° |
| 2026-04-24 11:02 | 54.58457 | 18.44570 | 10930 ft | 309 kts | 129° |
| 2026-04-24 11:02 | 54.57061 | 18.47413 | 10595 ft | 309 kts | 129° |
| 2026-04-24 11:03 | 54.55676 | 18.50228 | 10329 ft | 306 kts | 130° |
| 2026-04-24 11:03 | 54.54316 | 18.52991 | 10013 ft | 299 kts | 129° |
| 2026-04-24 11:03 | 54.52974 | 18.55715 | 9507 ft | 297 kts | 129° |
| 2026-04-24 11:03 | 54.51641 | 18.58422 | 8961 ft | 297 kts | 129° |
| 2026-04-24 11:04 | 54.50308 | 18.61127 | 8626 ft | 295 kts | 129° |
| 2026-04-24 11:04 | 54.48981 | 18.63816 | 8286 ft | 294 kts | 129° |
| 2026-04-24 11:04 | 54.47656 | 18.66498 | 7937 ft | 294 kts | 129° |
| 2026-04-24 11:04 | 54.46337 | 18.69170 | 7612 ft | 293 kts | 129° |
| 2026-04-24 11:05 | 54.45031 | 18.71806 | 7280 ft | 293 kts | 129° |
| 2026-04-24 11:05 | 54.43695 | 18.74495 | 6948 ft | 292 kts | 129° |
| 2026-04-24 11:05 | 54.42391 | 18.77117 | 6640 ft | 292 kts | 129° |
| 2026-04-24 11:05 | 54.41075 | 18.79761 | 6303 ft | 291 kts | 129° |
| 2026-04-24 11:06 | 54.39760 | 18.82400 | 5982 ft | 290 kts | 130° |
| 2026-04-24 11:06 | 54.38459 | 18.85010 | 5808 ft | 283 kts | 130° |
| 2026-04-24 11:06 | 54.37200 | 18.87536 | 5666 ft | 275 kts | 130° |
| 2026-04-24 11:06 | 54.35973 | 18.89996 | 5534 ft | 267 kts | 130° |
| 2026-04-24 11:07 | 54.33309 | 18.94039 | 5257 ft | 249 kts | 161° |
| 2026-04-24 11:07 | 54.31659 | 18.94610 | 5094 ft | 238 kts | 180° |
| 2026-04-24 11:07 | 54.30025 | 18.94711 | 4911 ft | 231 kts | 191° |
| 2026-04-24 11:08 | 54.28582 | 18.93791 | 4718 ft | 217 kts | 220° |
| 2026-04-24 11:08 | 54.27632 | 18.91895 | 4532 ft | 207 kts | 248° |
| 2026-04-24 11:08 | 54.27316 | 18.89573 | 4347 ft | 198 kts | 274° |
| 2026-04-24 11:08 | 54.27611 | 18.87334 | 4171 ft | 192 kts | 295° |
| 2026-04-24 11:09 | 54.28139 | 18.85257 | 4031 ft | 188 kts | 295° |
| 2026-04-24 11:09 | 54.28642 | 18.83244 | 3866 ft | 186 kts | 295° |
| 2026-04-24 11:09 | 54.29154 | 18.81182 | 3640 ft | 185 kts | 294° |
| 2026-04-24 11:09 | 54.29647 | 18.79183 | 3452 ft | 185 kts | 294° |
| 2026-04-24 11:10 | 54.30152 | 18.77158 | 3255 ft | 184 kts | 294° |
| 2026-04-24 11:10 | 54.30654 | 18.75153 | 3102 ft | 183 kts | 294° |
| 2026-04-24 11:10 | 54.31155 | 18.73152 | 3003 ft | 183 kts | 294° |
| 2026-04-24 11:10 | 54.31658 | 18.71143 | 3013 ft | 184 kts | 294° |
| 2026-04-24 11:11 | 54.32163 | 18.69123 | 2962 ft | 185 kts | 295° |
| 2026-04-24 11:11 | 54.32656 | 18.67151 | 2792 ft | 175 kts | 295° |
| 2026-04-24 11:11 | 54.33112 | 18.65319 | 2566 ft | 156 kts | 295° |
| 2026-04-24 11:11 | 54.33514 | 18.63705 | 2369 ft | 140 kts | 295° |
| 2026-04-24 11:12 | 54.33889 | 18.62204 | 2193 ft | 135 kts | 294° |
| 2026-04-24 11:12 | 54.34254 | 18.60739 | 2003 ft | 132 kts | 294° |
| 2026-04-24 11:12 | 54.34615 | 18.59290 | 1830 ft | 132 kts | 294° |
| 2026-04-24 11:12 | 54.34974 | 18.57844 | 1644 ft | 131 kts | 294° |
| 2026-04-24 11:13 | 54.35335 | 18.56395 | 1455 ft | 131 kts | 294° |
| 2026-04-24 11:13 | 54.35692 | 18.54957 | 1281 ft | 131 kts | 295° |
| 2026-04-24 11:13 | 54.36048 | 18.53522 | 1094 ft | 130 kts | 294° |
| 2026-04-24 11:13 | 54.36405 | 18.52084 | 911 ft | 131 kts | 294° |
| 2026-04-24 11:14 | 54.36760 | 18.50653 | 733 ft | 129 kts | 294° |
| 2026-04-24 11:14 | 54.37112 | 18.49233 | 572 ft | 130 kts | 294° |
| 2026-04-24 11:14 | 54.37448 | 18.47875 | 467 ft | 110 kts | 292° |
| 2026-04-24 11:14 | 54.37676 | 18.46954 | 457 ft | 61 kts | 293° |
| 2026-04-24 11:15 | 54.37788 | 18.46502 | 457 ft | 29 kts | 293° |
| 2026-04-24 11:15 | 54.37854 | 18.46236 | 457 ft | 23 kts | 293° |
| 2026-04-24 11:15 | 54.37908 | 18.46027 | 456 ft | 16 kts | 300° |
| 2026-04-24 11:15 | 54.37989 | 18.45859 | 455 ft | 20 kts | 316° |
| 2026-04-24 11:16 | 54.38067 | 18.45749 | 455 ft | 11 kts | 322° |
| 2026-04-24 11:16 | 54.38120 | 18.45702 | 455 ft | 8 kts | 7° |
| 2026-04-24 11:16 | 54.38140 | 18.45793 | 455 ft | 10 kts | 102° |
| 2026-04-24 11:16 | 54.38124 | 18.45864 | 457 ft | 9 kts | 112° |
| 2026-04-24 11:17 | 54.38099 | 18.45964 | 459 ft | 9 kts | 111° |
| 2026-04-24 11:17 | 54.38116 | 18.46063 | 459 ft | 10 kts | 38° |
| 2026-04-24 11:17 | 54.38171 | 18.46115 | 460 ft | 8 kts | 41° |
| 2026-04-24 11:17 | 54.38165 | 18.46217 | 458 ft | 10 kts | 113° |
| 2026-04-24 11:18 | 54.38134 | 18.46341 | 457 ft | 12 kts | 113° |
| 2026-04-24 11:18 | 54.38122 | 18.46405 | 457 ft | 3 kts | 82° |
| 2026-04-24 11:18 | 54.38143 | 18.46432 | 458 ft | 5 kts | 26° |
| 2026-04-24 11:18 | 54.38159 | 18.46444 | 460 ft | 1 kts | 23° |